Time;durP1;ratioP1;P1;durP2;ratioP2;P2;SDS_P1;SDS_P2;PMS_P1;PMS_P2;Temp;Humidity;BMP_temperature;BMP_pressure;BME280_temperature;BME280_humidity;BME280_pressure;Samples;Min_cycle;Max_cycle;Signal;HPM_P1;HPM_P2
2021/01/06 00:00:47;;;;;;;120.60;64.05;;;;;;;3.60;77.37;94072.92;1758815;81;21086;-48
2021/01/06 00:03:21;;;;;;;106.43;59.38;;;;;;;3.55;77.06;94062.52;1758896;81;21099;-49
2021/01/06 00:06:01;;;;;;;125.12;65.20;;;;;;;3.49;77.16;94061.48;1758906;80;21054;-50
2021/01/06 00:08:29;;;;;;;90.25;49.25;;;;;;;3.48;76.97;94069.47;1758975;80;21133;-50
2021/01/06 00:10:58;;;;;;;80.50;45.38;;;;;;;3.44;77.02;94063.91;1758882;80;21146;-49
2021/01/06 00:13:26;;;;;;;354.48;161.32;;;;;;;3.42;77.22;94060.09;1758814;81;21118;-49
2021/01/06 00:15:54;;;;;;;132.18;69.20;;;;;;;3.44;77.10;94063.91;1758876;81;21542;-49
2021/01/06 00:18:24;;;;;;;111.22;57.70;;;;;;;3.45;76.87;94074.97;1758846;80;21145;-49
2021/01/06 00:20:53;;;;;;;70.95;41.80;;;;;;;3.45;76.64;94070.13;1758890;80;21134;-48
2021/01/06 00:23:21;;;;;;;62.43;34.78;;;;;;;3.37;76.54;94081.73;1758867;80;21190;-49
2021/01/06 00:25:50;;;;;;;67.10;41.35;;;;;;;3.34;76.63;94084.51;1758771;80;21083;-49
2021/01/06 00:28:21;;;;;;;63.55;36.85;;;;;;;3.31;76.55;94083.41;1758867;81;21078;-50
2021/01/06 00:30:56;;;;;;;52.25;31.05;;;;;;;3.27;76.37;94081.94;1758859;81;21054;-49
2021/01/06 00:33:27;;;;;;;58.28;33.63;;;;;;;3.23;76.53;94083.95;1758944;81;21557;-49
2021/01/06 00:36:09;;;;;;;43.23;24.98;;;;;;;3.23;76.35;94088.03;1758867;81;21198;-49
2021/01/06 00:38:39;;;;;;;40.67;25.92;;;;;;;3.19;76.33;94085.95;1758879;81;21487;-49
2021/01/06 00:41:08;;;;;;;31.60;22.20;;;;;;;3.14;76.27;94090.51;1758846;81;21075;-49
2021/01/06 00:43:35;;;;;;;50.92;32.38;;;;;;;3.10;76.30;94107.47;1758933;80;21549;-50
2021/01/06 00:46:03;;;;;;;113.62;68.75;;;;;;;3.11;76.40;94106.29;1758850;81;21142;-49
2021/01/06 00:48:32;;;;;;;123.28;71.87;;;;;;;3.13;76.44;94108.00;1758946;80;22099;-50
2021/01/06 00:51:00;;;;;;;57.80;34.78;;;;;;;3.10;76.30;94104.18;1758793;80;21070;-49
2021/01/06 00:53:29;;;;;;;63.55;45.90;;;;;;;3.11;76.32;94113.08;1758846;81;21464;-50
2021/01/06 00:55:58;;;;;;;38.63;26.00;;;;;;;3.15;76.22;94116.50;1758623;80;21066;-49
2021/01/06 00:58:27;;;;;;;51.40;29.55;;;;;;;3.21;75.86;94110.17;1758785;80;21058;-53
2021/01/06 01:00:56;;;;;;;63.05;33.60;;;;;;;3.22;75.46;94111.70;1758916;81;21328;-49
2021/01/06 01:03:25;;;;;;;46.80;25.95;;;;;;;3.16;75.22;94107.16;1758433;80;21070;-50
2021/01/06 01:05:56;;;;;;;83.20;39.65;;;;;;;3.13;75.10;94108.00;1758861;81;21138;-49
2021/01/06 01:08:24;;;;;;;122.20;61.00;;;;;;;3.12;75.00;94119.47;1758903;81;21117;-49
2021/01/06 01:13:30;;;;;;;93.42;46.35;;;;;;;3.14;75.01;94119.05;1873635;75;22671;-49
2021/01/06 01:15:58;;;;;;;86.75;43.92;;;;;;;3.05;74.91;94120.94;1820901;78;21050;-49
2021/01/06 01:18:28;;;;;;;94.77;47.98;;;;;;;3.00;74.76;94121.99;1808638;79;22091;-48
2021/01/06 01:20:57;;;;;;;77.25;41.80;;;;;;;2.90;74.59;94120.23;1808464;79;21159;-48
2021/01/06 01:23:28;;;;;;;108.67;51.77;;;;;;;2.78;74.96;94124.89;1808477;78;21210;-49
2021/01/06 01:25:59;;;;;;;161.18;75.80;;;;;;;2.69;74.99;94128.73;1808580;79;21141;-50
2021/01/06 01:28:27;;;;;;;120.47;61.80;;;;;;;2.65;75.12;94136.17;1808651;79;21053;-49
2021/01/06 01:30:57;;;;;;;87.22;45.65;;;;;;;2.64;75.34;94140.03;1808571;79;21194;-50
2021/01/06 01:33:26;;;;;;;97.10;48.35;;;;;;;2.61;75.19;94136.22;1808450;79;21171;-49
2021/01/06 01:35:57;;;;;;;78.25;41.70;;;;;;;2.55;75.03;94146.59;1808500;78;21121;-50
2021/01/06 01:38:28;;;;;;;54.35;31.55;;;;;;;2.50;75.13;94149.77;1808593;79;21136;-50
2021/01/06 01:41:06;;;;;;;44.27;24.72;;;;;;;2.47;75.12;94151.95;1808588;79;21133;-49
2021/01/06 01:43:34;;;;;;;40.83;23.47;;;;;;;2.44;75.27;94145.96;1808606;78;21267;-49
2021/01/06 01:46:07;;;;;;;52.58;26.23;;;;;;;2.41;75.12;94141.36;1808650;79;21069;-49
2021/01/06 01:48:44;;;;;;;43.85;24.02;;;;;;;2.38;75.23;94143.54;1808539;78;21145;-49
2021/01/06 01:51:35;;;;;;;48.42;25.80;;;;;;;2.30;75.27;94142.87;1808612;79;21159;-50
2021/01/06 01:54:13;;;;;;;38.55;20.00;;;;;;;2.33;75.39;94148.83;1873587;76;22721;-49
2021/01/06 01:57:08;;;;;;;31.95;19.05;;;;;;;2.27;75.32;94149.69;1841591;77;21034;-49
2021/01/06 01:59:51;;;;;;;38.63;21.95;;;;;;;2.26;75.46;94157.08;1841614;78;21194;-49
2021/01/06 02:02:28;;;;;;;40.63;20.72;;;;;;;2.28;75.60;94159.37;1841538;78;21045;-49
2021/01/06 02:04:59;;;;;;;44.27;23.98;;;;;;;2.28;75.31;94167.51;1835911;77;21133;-49
2021/01/06 02:07:30;;;;;;;31.70;20.17;;;;;;;2.19;75.32;94168.61;1811541;78;21070;-48
2021/01/06 02:10:18;;;;;;;35.95;21.05;;;;;;;2.12;75.38;94178.97;1841632;77;21034;-49
2021/01/06 02:12:53;;;;;;;35.20;22.07;;;;;;;2.11;75.72;94179.39;1841544;78;21195;-49
2021/01/06 02:15:35;;;;;;;54.80;29.02;;;;;;;2.16;75.56;94172.14;1828957;77;21096;-49
2021/01/06 02:18:05;;;;;;;49.90;27.40;;;;;;;2.04;75.31;94172.10;1808774;79;21105;-50
2021/01/06 02:20:33;;;;;;;50.50;25.25;;;;;;;1.96;76.01;94175.31;1808497;78;21180;-50
2021/01/06 02:23:01;;;;;;;47.17;25.30;;;;;;;1.96;76.23;94174.70;1808512;79;21041;-48
2021/01/06 02:25:30;;;;;;;33.65;20.82;;;;;;;1.94;76.01;94182.48;1808513;79;21157;-49
2021/01/06 02:27:59;;;;;;;44.30;25.77;;;;;;;1.87;75.87;94184.51;1808393;78;21077;-48
2021/01/06 02:30:27;;;;;;;28.40;18.60;;;;;;;1.78;75.82;94175.50;1808577;78;21506;-48
2021/01/06 02:32:55;;;;;;;25.92;18.30;;;;;;;1.71;75.98;94177.52;1779789;79;21128;-49
2021/01/06 02:35:23;;;;;;;25.77;17.42;;;;;;;1.69;76.35;94184.54;1808495;79;21140;-49
2021/01/06 02:37:50;;;;;;;28.25;17.05;;;;;;;1.74;76.39;94178.09;1808491;79;21494;-49
2021/01/06 02:40:19;;;;;;;41.70;23.30;;;;;;;1.78;76.04;94190.41;1808437;79;21097;-49
2021/01/06 02:42:47;;;;;;;48.85;25.23;;;;;;;1.81;75.75;94190.95;1808479;79;21077;-49
2021/01/06 02:45:16;;;;;;;40.40;22.98;;;;;;;1.80;75.64;94192.73;1808465;78;21144;-49
2021/01/06 02:47:46;;;;;;;30.52;19.90;;;;;;;1.77;75.40;94179.39;1808486;78;21605;-48
2021/01/06 02:50:14;;;;;;;34.48;20.90;;;;;;;1.75;75.50;94180.98;1755461;79;21140;-49
2021/01/06 02:53:00;;;;;;;36.05;23.60;;;;;;;1.76;75.73;94172.44;1782005;79;21065;-49
2021/01/06 02:55:29;;;;;;;76.15;37.38;;;;;;;1.78;75.99;94180.17;1817126;79;21068;-49
2021/01/06 02:57:58;;;;;;;99.85;47.20;;;;;;;1.75;75.95;94180.38;1792796;79;21053;-49
2021/01/06 03:00:26;;;;;;;120.53;53.35;;;;;;;1.73;76.12;94186.63;1817092;79;21124;-48
2021/01/06 03:02:54;;;;;;;108.95;48.85;;;;;;;1.73;76.10;94184.09;1817057;79;21128;-48
2021/01/06 03:05:44;;;;;;;103.70;48.50;;;;;;;1.70;75.75;94188.19;1816391;78;21164;-48
2021/01/06 03:08:14;;;;;;;223.35;82.05;;;;;;;1.61;75.75;94182.49;1816594;78;21612;-49
2021/01/06 03:10:42;;;;;;;139.72;61.70;;;;;;;1.52;75.84;94188.20;1816477;78;21538;-49
2021/01/06 03:13:10;;;;;;;123.72;57.08;;;;;;;1.38;75.63;94182.36;1816441;79;21061;-49
2021/01/06 03:15:38;;;;;;;80.55;42.30;;;;;;;1.30;75.83;94180.11;1816383;77;21469;-50
2021/01/06 03:18:06;;;;;;;114.70;54.30;;;;;;;1.25;75.98;94179.95;1816363;79;21184;-49
2021/01/06 03:20:37;;;;;;;124.20;58.50;;;;;;;1.27;76.23;94180.33;1816551;79;21540;-49
2021/01/06 03:23:12;;;;;;;79.92;40.33;;;;;;;1.29;76.28;94193.48;1792486;79;21128;-48
2021/01/06 03:25:41;;;;;;;198.50;77.92;;;;;;;1.37;76.66;94194.36;1816502;78;21061;-50
2021/01/06 03:28:11;;;;;;;73.90;34.67;;;;;;;1.44;76.01;94196.20;1816435;79;21286;-48
2021/01/06 03:30:39;;;;;;;65.95;30.48;;;;;;;1.36;75.87;94200.92;1816385;78;21096;-48
2021/01/06 03:33:23;;;;;;;131.75;58.50;;;;;;;1.31;75.98;94196.55;1816385;79;21036;-49
2021/01/06 03:35:58;;;;;;;98.07;46.23;;;;;;;1.30;75.91;94191.70;1816479;79;21061;-49
2021/01/06 03:38:48;;;;;;;82.62;44.20;;;;;;;1.26;75.97;94197.75;1791880;79;21143;-49
2021/01/06 03:41:17;;;;;;;63.28;38.58;;;;;;;1.19;76.26;94207.87;1816470;79;21189;-49
2021/01/06 03:43:51;;;;;;;100.50;53.05;;;;;;;1.11;75.91;94209.12;1816379;78;21144;-49
2021/01/06 03:46:33;;;;;;;91.05;48.13;;;;;;;0.93;75.99;94219.32;1791869;79;21057;-49
2021/01/06 03:49:54;;;;;;;66.30;37.30;;;;;;;0.82;76.59;94213.20;1816661;79;21060;-48
2021/01/06 03:53:03;;;;;;;85.67;44.10;;;;;;;0.87;77.08;94215.48;1816361;78;21065;-49
2021/01/06 03:55:48;;;;;;;69.37;39.00;;;;;;;0.97;76.77;94205.92;1816498;78;21461;-48
2021/01/06 03:58:43;;;;;;;70.00;39.20;;;;;;;0.94;76.49;94210.78;1816384;78;21128;-48
2021/01/06 04:01:36;;;;;;;75.10;44.88;;;;;;;0.94;76.71;94205.97;1786575;79;21076;-49
2021/01/06 04:04:25;;;;;;;81.35;45.65;;;;;;;0.95;76.74;94211.56;1816428;78;21084;-48
2021/01/06 04:06:54;;;;;;;65.95;40.28;;;;;;;1.01;76.82;94204.55;1816452;78;21156;-48
2021/01/06 04:09:27;;;;;;;58.78;37.25;;;;;;;0.99;76.09;94200.87;1816434;79;21184;-49
2021/01/06 04:12:08;;;;;;;56.80;35.35;;;;;;;0.92;75.99;94191.47;1816323;78;21128;-49
2021/01/06 04:14:36;;;;;;;74.90;47.08;;;;;;;0.86;76.05;94201.77;1816412;77;21093;-50
2021/01/06 04:17:33;;;;;;;78.57;47.65;;;;;;;0.84;76.21;94202.75;1816460;79;21564;-49
2021/01/06 04:20:32;;;;;;;74.42;46.28;;;;;;;0.86;76.00;94205.83;1816554;79;21054;-49
2021/01/06 04:23:03;;;;;;;79.47;43.65;;;;;;;0.91;75.76;94210.23;1816387;79;21292;-49
2021/01/06 04:25:41;;;;;;;98.97;51.92;;;;;;;0.87;75.46;94216.27;1816415;79;21093;-49
2021/01/06 04:28:16;;;;;;;104.35;51.90;;;;;;;0.84;75.38;94211.66;1816135;78;21072;-49
2021/01/06 04:31:00;;;;;;;97.72;50.60;;;;;;;0.83;75.67;94212.03;1792837;79;21144;-49
2021/01/06 04:33:37;;;;;;;110.03;51.83;;;;;;;0.84;75.40;94208.95;1816511;78;21057;-48
2021/01/06 04:36:15;;;;;;;124.75;57.10;;;;;;;0.84;75.48;94207.59;1816451;79;21154;-48
2021/01/06 04:38:47;;;;;;;113.10;58.48;;;;;;;0.86;75.41;94216.66;1816354;79;21184;-50
2021/01/06 04:41:44;;;;;;;126.47;59.38;;;;;;;0.84;75.04;94216.28;1816496;79;21121;-50
2021/01/06 04:44:37;;;;;;;104.75;53.48;;;;;;;0.79;75.38;94218.06;1815724;79;21077;-49
2021/01/06 04:47:49;;;;;;;125.12;57.33;;;;;;;0.77;75.18;94214.39;1816402;78;21125;-49
2021/01/06 04:50:43;;;;;;;96.25;49.10;;;;;;;0.69;74.86;94208.86;1816493;79;21196;-50
2021/01/06 04:53:32;;;;;;;85.97;43.10;;;;;;;0.54;74.90;94218.80;1814799;79;21635;-49
2021/01/06 04:56:31;;;;;;;91.28;46.60;;;;;;;0.45;75.16;94217.88;1807790;78;21192;-49
2021/01/06 04:59:20;;;;;;;110.70;54.30;;;;;;;0.48;75.35;94215.77;1807796;79;21066;-49
2021/01/06 05:02:12;;;;;;;81.02;47.35;;;;;;;0.48;75.35;94212.27;1807868;79;21042;-50
2021/01/06 05:05:33;;;;;;;74.07;44.63;;;;;;;0.47;75.28;94218.85;1807836;78;21272;-48
2021/01/06 05:08:24;;;;;;;79.30;41.92;;;;;;;0.43;75.58;94217.52;1807738;79;21033;-50
2021/01/06 05:11:22;;;;;;;86.40;43.38;;;;;;;0.44;75.33;94228.52;1792188;79;21172;-51
2021/01/06 05:14:19;;;;;;;84.00;44.73;;;;;;;0.31;75.04;94232.86;1807763;79;21041;-49
2021/01/06 05:16:48;;;;;;;106.20;51.58;;;;;;;0.23;74.86;94238.11;1807843;78;21537;-50
2021/01/06 05:19:31;;;;;;;88.33;48.73;;;;;;;0.09;74.88;94236.84;1807918;79;22172;-49
2021/01/06 05:22:00;;;;;;;106.37;54.50;;;;;;;0.03;75.23;94234.34;1807952;79;21541;-49
2021/01/06 05:24:50;;;;;;;128.55;65.37;;;;;;;0.01;75.37;94237.27;1807815;79;21053;-49
2021/01/06 05:27:23;;;;;;;109.17;52.90;;;;;;;-0.06;75.70;94235.16;1807824;79;21049;-50
2021/01/06 05:29:55;;;;;;;131.60;66.10;;;;;;;-0.16;76.10;94228.63;1778812;79;21061;-50
2021/01/06 05:32:32;;;;;;;123.53;59.25;;;;;;;-0.18;76.52;94234.23;1807664;79;21164;-48
2021/01/06 05:35:16;;;;;;;117.55;58.80;;;;;;;-0.19;76.41;94234.80;1807754;79;21070;-49
2021/01/06 05:37:59;;;;;;;122.85;63.87;;;;;;;-0.18;76.46;94231.53;1807775;78;21156;-49
2021/01/06 05:40:29;;;;;;;120.60;63.38;;;;;;;-0.11;76.84;94235.55;1807943;79;21140;-48
2021/01/06 05:43:01;;;;;;;126.40;64.75;;;;;;;-0.02;76.79;94231.86;1807804;78;21584;-48
2021/01/06 05:45:52;;;;;;;110.72;59.63;;;;;;;0.06;76.49;94222.73;1807797;79;21188;-49
2021/01/06 05:48:24;;;;;;;117.45;60.20;;;;;;;0.11;76.33;94235.86;1733884;79;21064;-50
2021/01/06 05:51:19;;;;;;;119.72;61.08;;;;;;;0.18;76.10;94230.41;1807366;79;21068;-49
2021/01/06 05:53:58;;;;;;;121.15;62.17;;;;;;;0.22;76.04;94240.63;1809122;79;21080;-49
2021/01/06 05:56:38;;;;;;;122.15;62.60;;;;;;;0.29;75.46;94227.08;1813501;78;21192;-49
2021/01/06 05:59:40;;;;;;;124.38;63.00;;;;;;;0.30;75.14;94234.03;1813475;79;21267;-48
2021/01/06 06:02:17;;;;;;;114.90;58.10;;;;;;;0.35;75.00;94236.31;1813659;79;21076;-48
2021/01/06 06:05:36;;;;;;;113.25;59.95;;;;;;;0.35;74.69;94240.38;1813547;79;21591;-49
2021/01/06 06:08:45;;;;;;;189.75;93.97;;;;;;;0.32;74.43;94239.81;1813433;79;21112;-49
2021/01/06 06:12:04;;;;;;;140.90;72.60;;;;;;;0.31;74.55;94240.98;1813482;79;21144;-49
2021/01/06 06:14:52;;;;;;;129.30;64.22;;;;;;;0.38;74.09;94244.98;1813436;78;21188;-50
2021/01/06 06:17:30;;;;;;;173.15;83.05;;;;;;;0.35;74.40;94245.78;1813437;78;21092;-50
2021/01/06 06:20:19;;;;;;;171.25;85.15;;;;;;;0.34;73.83;94257.77;1813455;79;21069;-49
2021/01/06 06:23:16;;;;;;;195.72;87.50;;;;;;;0.32;74.02;94250.63;1813433;79;21049;-49
2021/01/06 06:26:09;;;;;;;164.20;84.47;;;;;;;0.36;73.96;94253.30;1813479;78;21053;-49
2021/01/06 06:28:41;;;;;;;;;;;;;;;0.35;73.66;94259.88;1815852;79;21425;-49
2021/01/06 06:31:28;;;;;;;283.80;142.87;;;;;;;0.20;73.76;94261.88;1813540;79;28277;-54
2021/01/06 06:34:00;;;;;;;120.10;64.72;;;;;;;0.08;74.26;94259.61;1813476;79;21572;-49
2021/01/06 06:36:32;;;;;;;86.02;51.33;;;;;;;0.16;74.72;94263.84;1813030;79;21066;-50
2021/01/06 06:39:14;;;;;;;127.35;72.50;;;;;;;0.19;74.04;94261.70;1813522;78;21050;-50
2021/01/06 06:41:42;;;;;;;132.40;76.90;;;;;;;0.07;74.02;94262.13;1813760;79;21365;-49
2021/01/06 06:44:19;;;;;;;139.25;80.60;;;;;;;-0.01;74.41;94259.27;1813487;79;21077;-50
2021/01/06 06:46:52;;;;;;;156.70;92.72;;;;;;;0.02;74.81;94253.07;1813679;79;21121;-50
2021/01/06 06:49:31;;;;;;;180.95;108.25;;;;;;;0.16;74.98;94251.67;1813678;78;21068;-50
2021/01/06 06:52:37;;;;;;;246.30;131.47;;;;;;;0.26;74.31;94253.54;1813598;78;21045;-49
2021/01/06 06:55:40;;;;;;;208.78;121.10;;;;;;;0.18;74.09;94257.45;1804458;77;21193;-49
2021/01/06 06:58:46;;;;;;;177.13;107.83;;;;;;;0.15;74.38;94265.56;1800148;78;21057;-50
2021/01/06 07:01:18;;;;;;;166.18;108.50;;;;;;;0.17;74.36;94266.73;1799879;79;21101;-50
2021/01/06 07:04:00;;;;;;;195.62;121.37;;;;;;;0.26;74.59;94271.12;1799973;78;21144;-50
2021/01/06 07:06:28;;;;;;;173.07;117.03;;;;;;;0.34;74.73;94267.23;1799816;79;21492;-51
2021/01/06 07:08:58;;;;;;;190.62;119.40;;;;;;;0.49;74.81;94267.92;1799480;78;21255;-50
2021/01/06 07:11:47;;;;;;;278.83;162.88;;;;;;;0.64;74.68;94272.88;1799712;78;21172;-51
2021/01/06 07:14:35;;;;;;;292.75;162.95;;;;;;;0.78;74.31;94274.12;1771328;79;21125;-52
2021/01/06 07:17:13;;;;;;;311.10;172.82;;;;;;;0.82;74.06;94266.78;1797831;78;21230;-53
2021/01/06 07:19:53;;;;;;;302.57;167.13;;;;;;;0.92;74.08;94265.16;1767010;79;21072;-53
2021/01/06 07:22:41;;;;;;;406.78;202.40;;;;;;;0.99;73.68;94264.50;1792678;78;21526;-51
2021/01/06 07:25:20;;;;;;;144.20;94.17;;;;;;;0.97;73.62;94279.63;1799979;78;21600;-51
2021/01/06 07:27:52;;;;;;;211.75;127.40;;;;;;;1.03;74.17;94281.52;1796543;78;21060;-53
2021/01/06 07:30:39;;;;;;;227.07;144.43;;;;;;;1.21;73.98;94286.80;1787042;79;21098;-51
2021/01/06 07:33:39;;;;;;;247.75;145.30;;;;;;;1.29;74.12;94288.30;1792574;79;21675;-52
2021/01/06 07:36:18;;;;;;;226.15;137.68;;;;;;;1.44;73.99;94294.55;1792256;78;22061;-50
2021/01/06 07:38:47;;;;;;;159.90;105.40;;;;;;;1.61;73.93;94300.97;1797904;79;21161;-53
2021/01/06 07:41:16;;;;;;;162.35;104.55;;;;;;;1.75;74.02;94293.50;1795130;79;21600;-52
2021/01/06 07:44:25;;;;;;;145.57;94.00;;;;;;;1.95;73.70;94293.10;1796534;79;21576;-53
2021/01/06 07:47:19;;;;;;;114.65;74.80;;;;;;;2.15;73.54;94278.52;1857461;75;21987;-51
2021/01/06 07:50:00;;;;;;;175.10;109.30;;;;;;;2.18;73.34;94287.81;1847771;77;21551;-52
2021/01/06 07:52:51;;;;;;;245.05;149.77;;;;;;;2.18;73.57;94289.16;1835455;77;22089;-51
2021/01/06 07:55:25;;;;;;;209.92;129.25;;;;;;;2.17;73.33;94285.67;1826408;78;21507;-52
2021/01/06 07:58:11;;;;;;;178.18;112.03;;;;;;;2.17;73.11;94279.48;1828812;77;21316;-50
2021/01/06 08:00:53;;;;;;;140.43;89.30;;;;;;;2.24;72.99;94278.82;1830030;77;21177;-50
2021/01/06 08:03:49;;;;;;;161.20;104.75;;;;;;;2.31;72.80;94277.37;1820209;78;21495;-52
2021/01/06 08:06:20;;;;;;;186.92;120.97;;;;;;;2.34;72.66;94277.16;1775388;78;21211;-54
2021/01/06 08:08:50;;;;;;;195.87;132.65;;;;;;;2.37;72.93;94287.20;1782507;78;21543;-52
2021/01/06 08:11:21;;;;;;;198.23;128.97;;;;;;;2.45;73.04;94287.28;1780955;78;21136;-54
2021/01/06 08:13:58;;;;;;;214.72;138.03;;;;;;;2.45;73.18;94294.85;1769946;79;21595;-51
2021/01/06 08:16:37;;;;;;;212.72;136.50;;;;;;;2.51;73.66;94281.00;1808266;78;21115;-52
2021/01/06 08:19:33;;;;;;;191.82;126.40;;;;;;;2.71;74.06;94292.01;1784160;79;21405;-53
2021/01/06 08:22:13;;;;;;;166.75;112.95;;;;;;;2.92;73.82;94293.86;1780195;80;21106;-52
2021/01/06 08:25:03;;;;;;;132.70;88.70;;;;;;;3.20;73.73;94300.83;1867429;75;22844;-53
2021/01/06 08:27:36;;;;;;;110.25;74.60;;;;;;;3.37;73.48;94308.70;1823521;77;21905;-51
2021/01/06 08:30:26;;;;;;;128.93;87.53;;;;;;;3.50;72.57;94307.71;1826189;77;22314;-53
2021/01/06 08:33:08;;;;;;;154.23;101.87;;;;;;;3.53;72.37;94308.24;1830333;77;21655;-54
2021/01/06 08:35:43;;;;;;;346.23;183.47;;;;;;;3.55;72.09;94309.20;1827556;77;21490;-54
2021/01/06 08:38:32;;;;;;;254.25;139.70;;;;;;;3.39;72.30;94302.88;1819640;77;21172;-54
2021/01/06 08:41:20;;;;;;;236.07;136.25;;;;;;;3.32;72.79;94305.11;1822007;77;21645;-51
2021/01/06 08:43:48;;;;;;;182.70;116.80;;;;;;;3.40;72.96;94308.48;1840026;77;21343;-56
2021/01/06 08:46:29;;;;;;;181.52;117.53;;;;;;;3.41;73.07;94316.82;1821845;77;21135;-52
2021/01/06 08:49:17;;;;;;;145.15;97.27;;;;;;;3.43;73.35;94317.17;1820516;78;21044;-53
2021/01/06 08:51:46;;;;;;;133.27;85.83;;;;;;;3.46;73.50;94318.45;1816914;77;21060;-54
2021/01/06 08:54:31;;;;;;;132.67;84.83;;;;;;;3.61;73.48;94316.48;1822874;77;21119;-51
2021/01/06 08:57:09;;;;;;;151.27;98.17;;;;;;;3.80;73.64;94315.78;1830217;77;21263;-51
2021/01/06 08:59:40;;;;;;;123.33;81.63;;;;;;;4.06;73.44;94310.09;1826964;77;21099;-53
2021/01/06 09:02:19;;;;;;;117.15;77.22;;;;;;;4.45;73.30;94304.08;1821412;77;21059;-51
2021/01/06 09:04:47;;;;;;;124.87;80.75;;;;;;;4.74;72.23;94307.78;1822295;77;21636;-54
2021/01/06 09:07:22;;;;;;;115.70;77.00;;;;;;;5.04;71.37;94304.83;1819788;77;21154;-54
2021/01/06 09:10:11;;;;;;;111.47;68.80;;;;;;;5.27;70.48;94292.42;1816075;77;21193;-54
2021/01/06 09:13:04;;;;;;;96.65;60.40;;;;;;;5.61;69.85;94294.91;1815925;77;21068;-60
2021/01/06 09:15:49;;;;;;;82.85;53.55;;;;;;;5.79;68.71;94293.17;1825014;77;21153;-53
2021/01/06 09:18:28;;;;;;;80.97;50.73;;;;;;;5.81;67.69;94287.44;1827355;78;21232;-53
2021/01/06 09:21:10;;;;;;;80.75;50.90;;;;;;;5.87;67.83;94283.02;1820945;78;21052;-53
2021/01/06 09:23:39;;;;;;;76.03;50.97;;;;;;;5.99;67.25;94284.27;1814223;78;21349;-53
2021/01/06 09:26:07;;;;;;;83.92;53.78;;;;;;;6.06;66.93;94278.04;1817545;78;21560;-52
2021/01/06 09:28:37;;;;;;;84.20;54.55;;;;;;;6.05;66.63;94278.45;1812139;78;21184;-51
2021/01/06 09:31:05;;;;;;;89.25;55.88;;;;;;;6.04;66.30;94279.66;1832021;78;21120;-51
2021/01/06 09:33:36;;;;;;;78.87;48.98;;;;;;;5.93;66.31;94279.17;1794685;78;21181;-51
2021/01/06 09:36:09;;;;;;;75.45;49.33;;;;;;;5.96;65.97;94274.22;1827767;77;21203;-56
2021/01/06 09:38:46;;;;;;;69.70;44.63;;;;;;;6.04;65.97;94278.29;1828755;77;21120;-52
2021/01/06 09:41:23;;;;;;;62.70;41.85;;;;;;;6.12;65.39;94286.48;1833673;77;21182;-53
2021/01/06 09:44:07;;;;;;;56.63;38.63;;;;;;;6.07;65.11;94276.84;1785649;78;21132;-52
2021/01/06 09:47:03;;;;;;;64.37;41.70;;;;;;;6.06;65.40;94272.58;1822593;78;21560;-51
2021/01/06 09:49:44;;;;;;;61.77;38.53;;;;;;;5.98;65.18;94273.94;1819911;78;21243;-50
2021/01/06 09:52:23;;;;;;;60.23;39.67;;;;;;;5.91;65.51;94265.94;1823698;78;21068;-52
2021/01/06 09:54:52;;;;;;;53.52;34.90;;;;;;;5.93;65.44;94253.24;1806503;78;21232;-51
2021/01/06 09:57:21;;;;;;;55.90;36.73;;;;;;;5.91;65.22;94254.24;1825335;78;21143;-52
2021/01/06 09:59:52;;;;;;;70.17;43.78;;;;;;;5.78;65.49;94250.09;1826591;78;21052;-52
2021/01/06 10:02:32;;;;;;;114.10;66.47;;;;;;;5.62;65.91;94243.24;1819919;78;21383;-52
2021/01/06 10:05:40;;;;;;;181.35;105.40;;;;;;;5.54;66.25;94239.75;1810946;78;21148;-51
2021/01/06 10:08:32;;;;;;;158.55;95.28;;;;;;;5.46;66.66;94241.13;1748833;81;21778;-55
2021/01/06 10:11:05;;;;;;;94.95;59.40;;;;;;;5.49;66.97;94235.59;1708214;84;21124;-51
2021/01/06 10:14:16;;;;;;;97.02;59.88;;;;;;;5.80;66.91;94234.66;1872718;75;22327;-53
2021/01/06 10:16:48;;;;;;;88.78;56.60;;;;;;;6.19;66.80;94231.67;1811727;78;21149;-50
2021/01/06 10:19:37;;;;;;;64.30;41.25;;;;;;;6.92;65.19;94224.69;1778184;79;21198;-51
2021/01/06 10:22:16;;;;;;;66.12;43.98;;;;;;;7.44;63.96;94217.56;1806044;78;21145;-52
2021/01/06 10:25:34;;;;;;;62.98;40.55;;;;;;;7.74;62.59;94215.62;1803294;78;21152;-52
2021/01/06 10:28:12;;;;;;;59.10;39.08;;;;;;;7.83;62.03;94210.22;1798187;78;21232;-51
2021/01/06 10:30:40;;;;;;;57.60;37.17;;;;;;;7.89;61.75;94196.89;1805641;78;21074;-52
2021/01/06 10:33:21;;;;;;;74.30;50.78;;;;;;;8.28;62.33;94203.80;1751987;79;21320;-52
2021/01/06 10:36:04;;;;;;;69.17;47.17;;;;;;;8.61;61.14;94205.70;1794930;78;20943;-51
2021/01/06 10:38:47;;;;;;;71.25;48.48;;;;;;;8.80;60.36;94195.63;1794045;79;21187;-52
2021/01/06 10:41:24;;;;;;;64.53;41.70;;;;;;;8.71;60.49;94193.59;1802287;78;21129;-52
2021/01/06 10:44:12;;;;;;;59.25;41.77;;;;;;;8.41;60.11;94191.56;1807725;78;21192;-51
2021/01/06 10:46:49;;;;;;;63.38;41.05;;;;;;;8.08;60.22;94190.98;1801963;78;22066;-54
2021/01/06 10:49:25;;;;;;;69.05;44.83;;;;;;;7.78;60.85;94195.13;1806511;78;21185;-54
2021/01/06 10:52:11;;;;;;;160.35;87.12;;;;;;;7.61;60.90;94182.80;1799818;78;21155;-51
2021/01/06 10:55:01;;;;;;;91.20;55.28;;;;;;;7.51;61.37;94183.16;1728856;82;21078;-54
2021/01/06 10:57:49;;;;;;;73.30;46.00;;;;;;;7.49;61.45;94176.73;1755773;80;21556;-54
2021/01/06 11:00:22;;;;;;;89.67;59.98;;;;;;;7.93;61.40;94177.02;1625432;82;21234;-51
2021/01/06 11:03:14;;;;;;;;;;;;;;;8.52;59.54;94178.25;1740720;80;21590;-55
2021/01/06 11:05:56;;;;;;;79.22;53.08;;;;;;;8.95;58.37;94175.44;1739437;80;20244;-51
2021/01/06 11:08:54;;;;;;;83.45;54.65;;;;;;;9.19;58.92;94168.98;1748357;80;21150;-52
2021/01/06 11:11:57;;;;;;;84.28;55.30;;;;;;;9.87;57.34;94167.19;1739188;80;21614;-52
2021/01/06 11:15:23;;;;;;;74.22;51.30;;;;;;;10.75;56.24;94153.87;1743438;80;21210;-52
2021/01/06 11:18:16;;;;;;;84.13;56.92;;;;;;;11.33;54.34;94155.66;1749689;80;21090;-51
2021/01/06 11:21:08;;;;;;;70.20;47.62;;;;;;;11.87;51.73;94154.64;1727281;80;21166;-53
2021/01/06 11:23:56;;;;;;;51.63;35.65;;;;;;;12.20;49.64;94153.92;1719216;82;21083;-52
2021/01/06 11:26:32;;;;;;;34.88;22.95;;;;;;;12.38;49.20;94149.63;1750142;80;21617;-51
2021/01/06 11:29:25;;;;;;;31.75;21.60;;;;;;;12.42;47.30;94156.50;1748063;80;21215;-51
2021/01/06 11:32:21;;;;;;;;;;;;;;;12.51;46.80;94148.16;1739882;80;21249;-53
2021/01/06 11:34:55;;;;;;;39.75;27.25;;;;;;;12.72;46.81;94138.76;1696398;81;20271;-53
2021/01/06 11:37:31;;;;;;;37.63;27.15;;;;;;;13.08;46.08;94136.39;1757163;80;21175;-52
2021/01/06 11:39:59;;;;;;;36.48;25.25;;;;;;;13.69;45.60;94126.27;1726169;82;21135;-54
2021/01/06 11:43:05;;;;;;;54.05;36.17;;;;;;;14.31;42.62;94138.42;1758477;80;21263;-55
2021/01/06 11:45:37;;;;;;;51.65;35.55;;;;;;;14.58;41.53;94135.19;1750599;82;21636;-53
2021/01/06 11:48:09;;;;;;;55.52;35.33;;;;;;;14.85;41.40;94120.23;1749472;82;21157;-52
2021/01/06 11:50:41;;;;;;;51.55;31.57;;;;;;;15.55;41.35;94122.74;1721250;82;21134;-54
2021/01/06 11:53:29;;;;;;;35.38;24.02;;;;;;;16.26;39.05;94129.97;1750653;82;21103;-55
2021/01/06 11:56:14;;;;;;;44.33;28.92;;;;;;;16.75;38.97;94114.88;1737305;82;21382;-53
2021/01/06 11:59:03;;;;;;;52.98;38.95;;;;;;;17.34;38.02;94117.64;1750495;82;21083;-52
2021/01/06 12:01:59;;;;;;;41.80;29.72;;;;;;;17.86;36.35;94113.67;1750558;82;21074;-52
2021/01/06 12:05:01;;;;;;;41.85;30.68;;;;;;;18.08;36.35;94112.22;1750621;82;21598;-52
2021/01/06 12:07:40;;;;;;;28.70;20.82;;;;;;;18.41;35.48;94110.86;1750640;81;21098;-53
2021/01/06 12:10:35;;;;;;;33.65;23.47;;;;;;;18.50;34.55;94098.02;1750586;82;21380;-54
2021/01/06 12:13:17;;;;;;;29.37;21.27;;;;;;;18.74;34.73;94107.93;1758006;80;21656;-51
2021/01/06 12:16:12;;;;;;;25.57;19.00;;;;;;;19.13;33.95;94103.49;1748023;81;21215;-52
2021/01/06 12:19:08;;;;;;;20.92;15.28;;;;;;;19.39;33.34;94105.25;1731065;82;21629;-55
2021/01/06 12:22:01;;;;;;;18.80;14.13;;;;;;;19.46;32.64;94114.44;1730965;81;21201;-53
2021/01/06 12:24:35;;;;;;;;;;;;;;;19.26;32.62;94108.64;1733465;82;21205;-53